Time;durP1;ratioP1;P1;durP2;ratioP2;P2;SDS_P1;SDS_P2;PMS_P1;PMS_P2;Temp;Humidity;BMP_temperature;BMP_pressure;BME280_temperature;BME280_humidity;BME280_pressure;Samples;Min_cycle;Max_cycle;Signal;HPM_P1;HPM_P2
2023/09/13 00:01:15;;;;;;;5.53;4.27;;;19.40;99.90;;;;;;4997715;28;20450;-85
2023/09/13 00:03:42;;;;;;;1.53;1.43;;;19.40;99.90;;;;;;4996894;28;20514;-83
2023/09/13 00:06:10;;;;;;;3.27;3.07;;;19.30;99.90;;;;;;4997602;28;20471;-85
2023/09/13 00:08:37;;;;;;;3.27;3.07;;;19.30;99.90;;;;;;4989033;28;20444;-84
2023/09/13 00:11:04;;;;;;;2.53;2.40;;;19.20;99.90;;;;;;4996583;28;20553;-84
2023/09/13 00:13:33;;;;;;;2.50;2.40;;;19.10;99.90;;;;;;4996076;28;20535;-84
2023/09/13 00:16:00;;;;;;;4.00;3.63;;;19.20;99.90;;;;;;5001246;28;20439;-80
2023/09/13 00:18:28;;;;;;;1.20;1.20;;;19.20;99.90;;;;;;5010447;28;20483;-80
2023/09/13 00:20:55;;;;;;;3.77;2.23;;;19.20;99.90;;;;;;5012616;28;20424;-80
2023/09/13 00:23:22;;;;;;;1.20;1.10;;;19.20;99.90;;;;;;5008091;28;20452;-84
2023/09/13 00:25:49;;;;;;;2.40;2.30;;;19.10;99.90;;;;;;4997909;28;20451;-85
2023/09/13 00:28:16;;;;;;;2.23;2.03;;;19.10;99.90;;;;;;4997053;28;20475;-85
2023/09/13 00:30:44;;;;;;;2.87;1.90;;;19.10;99.90;;;;;;4996921;28;20487;-84
2023/09/13 00:33:11;;;;;;;3.10;2.87;;;19.00;99.90;;;;;;4997034;28;20826;-85
2023/09/13 00:35:38;;;;;;;1.90;1.80;;;19.00;99.90;;;;;;4997066;28;20494;-85
2023/09/13 00:38:06;;;;;;;2.90;2.70;;;19.00;99.90;;;;;;4996888;28;20455;-81
2023/09/13 00:40:33;;;;;;;1.83;1.73;;;18.80;99.90;;;;;;4997359;28;21715;-85
2023/09/13 00:43:00;;;;;;;4.37;4.17;;;18.90;99.90;;;;;;4995460;28;20451;-83
2023/09/13 00:45:33;;;;;;;1.73;1.63;;;19.00;99.90;;;;;;4996766;28;20524;-84
2023/09/13 00:48:01;;;;;;;2.23;2.13;;;18.90;99.90;;;;;;4996888;28;20694;-83
2023/09/13 00:50:28;;;;;;;2.23;2.13;;;18.90;99.90;;;;;;4996484;28;20583;-86
2023/09/13 00:53:17;;;;;;;2.90;2.70;;;18.80;99.90;;;;;;4993580;28;20529;-88
2023/09/13 00:55:44;;;;;;;4.97;4.20;;;18.80;99.90;;;;;;4996339;28;20799;-86
2023/09/13 00:58:12;;;;;;;4.03;3.63;;;18.70;99.90;;;;;;4995675;28;20445;-90
2023/09/13 01:00:39;;;;;;;2.20;2.10;;;18.70;99.90;;;;;;4996146;28;20482;-81
2023/09/13 01:03:07;;;;;;;2.43;2.33;;;18.70;99.90;;;;;;4996007;28;20440;-87
2023/09/13 01:05:35;;;;;;;2.73;2.53;;;18.70;99.90;;;;;;4995876;28;20499;-86
2023/09/13 01:08:03;;;;;;;0.93;0.93;;;18.70;99.90;;;;;;4994942;28;20498;-85
2023/09/13 01:10:30;;;;;;;1.07;1.07;;;18.60;99.90;;;;;;4996305;28;20491;-87
2023/09/13 01:12:58;;;;;;;3.50;3.30;;;18.60;99.90;;;;;;4996267;28;20488;-81
2023/09/13 01:15:30;;;;;;;3.67;3.47;;;18.60;99.90;;;;;;4995065;28;20444;-85
2023/09/13 01:18:12;;;;;;;2.90;2.73;;;18.50;99.90;;;;;;4995340;28;20458;-83
2023/09/13 01:20:55;;;;;;;2.87;2.77;;;18.50;99.90;;;;;;4995962;28;20414;-85
2023/09/13 01:23:35;;;;;;;3.27;3.07;;;18.50;99.90;;;;;;4995725;28;20439;-86
2023/09/13 01:26:08;;;;;;;2.10;2.00;;;18.40;99.90;;;;;;4997009;28;20451;-82
2023/09/13 01:28:41;;;;;;;1.00;1.00;;;18.40;99.90;;;;;;4994010;28;20527;-87
2023/09/13 01:31:09;;;;;;;2.70;2.60;;;18.40;99.90;;;;;;5004544;28;20515;-88
2023/09/13 01:33:37;;;;;;;0.90;0.90;;;18.40;99.90;;;;;;5016386;28;20499;-85
2023/09/13 01:36:05;;;;;;;6.37;3.33;;;18.50;99.90;;;;;;5015969;28;20455;-82
2023/09/13 01:38:32;;;;;;;4.47;4.07;;;18.40;99.90;;;;;;5015823;28;20424;-83
2023/09/13 01:41:23;;;;;;;3.63;3.47;;;18.40;99.90;;;;;;5006086;28;20432;-83
2023/09/13 01:43:53;;;;;;;3.07;2.83;;;18.40;99.90;;;;;;4996114;28;20491;-83
2023/09/13 01:46:28;;;;;;;3.50;3.23;;;18.40;99.90;;;;;;4992435;28;20467;-86
2023/09/13 01:48:57;;;;;;;3.83;3.63;;;18.40;99.90;;;;;;4993866;28;20443;-84
2023/09/13 01:51:26;;;;;;;1.17;1.13;;;18.30;99.90;;;;;;4993466;28;20444;-83
2023/09/13 01:53:56;;;;;;;3.80;3.60;;;18.30;99.90;;;;;;4997531;28;20480;-86
2023/09/13 01:56:23;;;;;;;1.70;1.60;;;18.30;99.90;;;;;;4997905;28;20515;-86
2023/09/13 01:58:51;;;;;;;1.73;1.63;;;18.20;99.90;;;;;;4997888;28;20512;-88
2023/09/13 02:01:18;;;;;;;2.10;2.00;;;18.30;99.90;;;;;;4997632;28;20448;-85
2023/09/13 02:03:45;;;;;;;3.30;3.03;;;18.20;99.90;;;;;;4995775;28;20560;-83
2023/09/13 02:06:12;;;;;;;3.97;2.13;;;18.20;99.90;;;;;;4995548;28;20491;-86
2023/09/13 02:08:41;;;;;;;2.77;2.57;;;18.20;99.90;;;;;;4997556;28;20450;-84
2023/09/13 02:11:09;;;;;;;4.13;3.83;;;18.20;99.90;;;;;;4997415;28;20555;-87
2023/09/13 02:13:36;;;;;;;3.80;3.50;;;18.20;99.90;;;;;;4995155;28;20484;-82
2023/09/13 02:16:03;;;;;;;1.30;1.27;;;18.10;99.90;;;;;;5004088;28;20480;-83
2023/09/13 02:18:31;;;;;;;3.97;3.67;;;18.10;99.90;;;;;;5007969;28;20448;-81
2023/09/13 02:20:58;;;;;;;2.53;2.40;;;18.10;99.90;;;;;;4997481;28;20515;-84
2023/09/13 02:23:27;;;;;;;4.70;4.40;;;18.10;99.90;;;;;;4994824;28;20655;-82
2023/09/13 02:25:54;;;;;;;2.30;2.17;;;18.00;99.90;;;;;;4994716;28;20466;-81
2023/09/13 02:28:21;;;;;;;2.00;1.90;;;18.00;99.90;;;;;;4997625;28;20819;-84
2023/09/13 02:30:48;;;;;;;2.83;2.00;;;18.00;99.90;;;;;;5001306;28;20498;-83
2023/09/13 02:33:16;;;;;;;3.57;3.37;;;18.00;99.90;;;;;;5000179;28;20440;-85
2023/09/13 02:35:45;;;;;;;2.40;2.20;;;17.90;99.90;;;;;;5006793;28;20507;-81
2023/09/13 02:38:12;;;;;;;4.37;4.07;;;18.00;99.90;;;;;;5013669;28;20479;-80
2023/09/13 02:40:39;;;;;;;2.63;2.53;;;18.00;99.90;;;;;;5014535;28;20451;-81
2023/09/13 02:43:07;;;;;;;2.17;2.07;;;17.90;99.90;;;;;;4999488;28;20551;-82
2023/09/13 02:45:34;;;;;;;3.30;3.10;;;17.90;99.90;;;;;;4999070;28;20795;-83
2023/09/13 02:48:01;;;;;;;1.87;1.77;;;17.90;99.90;;;;;;5000464;28;20515;-90
2023/09/13 02:50:29;;;;;;;4.17;3.97;;;17.90;99.90;;;;;;5001686;28;20534;-89
2023/09/13 02:52:55;;;;;;;4.77;4.37;;;17.90;99.90;;;;;;5332099;23;20492;-83
2023/09/13 02:55:23;;;;;;;3.50;3.30;;;17.80;99.90;;;;;;4987968;28;20481;-87
2023/09/13 02:57:53;;;;;;;3.83;3.53;;;17.80;99.90;;;;;;4989958;28;20458;-87
2023/09/13 03:00:20;;;;;;;3.87;3.60;;;17.80;99.90;;;;;;4980789;28;20523;-87
2023/09/13 03:02:47;;;;;;;2.47;2.27;;;17.70;99.90;;;;;;4986866;28;20516;-82
2023/09/13 03:05:15;;;;;;;4.13;3.90;;;17.70;99.90;;;;;;4980743;28;20784;-80
2023/09/13 03:07:42;;;;;;;6.77;6.27;;;17.70;99.90;;;;;;4980604;28;20516;-81
2023/09/13 03:10:09;;;;;;;3.80;3.50;;;17.80;99.90;;;;;;4980322;28;20766;-81
2023/09/13 03:12:36;;;;;;;3.07;2.97;;;17.70;99.90;;;;;;4983961;28;20480;-82
2023/09/13 03:15:05;;;;;;;2.90;2.70;;;17.70;99.90;;;;;;4988102;28;20467;-84
2023/09/13 03:17:31;;;;;;;2.83;2.67;;;17.70;99.90;;;;;;4989369;28;20507;-82
2023/09/13 03:19:58;;;;;;;3.73;3.37;;;17.60;99.90;;;;;;4991447;28;20439;-82
2023/09/13 03:22:25;;;;;;;1.50;1.40;;;17.70;99.90;;;;;;4996185;28;20448;-83
2023/09/13 03:24:53;;;;;;;1.90;1.80;;;17.60;99.90;;;;;;4995926;28;20451;-85
2023/09/13 03:27:20;;;;;;;1.97;1.50;;;17.60;99.90;;;;;;5220367;23;20487;-84
2023/09/13 03:29:47;;;;;;;4.23;3.87;;;17.60;99.90;;;;;;4999678;28;20475;-83
2023/09/13 03:32:14;;;;;;;5.80;5.37;;;17.60;99.90;;;;;;5000245;28;20722;-83
2023/09/13 03:34:42;;;;;;;2.20;2.10;;;17.70;99.90;;;;;;5006528;28;20507;-84
2023/09/13 03:37:10;;;;;;;3.57;3.33;;;17.60;99.90;;;;;;5004929;28;20551;-85
2023/09/13 03:39:37;;;;;;;3.57;3.27;;;17.60;99.90;;;;;;5010063;28;20447;-82
2023/09/13 03:42:04;;;;;;;2.30;2.20;;;17.60;99.90;;;;;;5006743;28;20515;-81
2023/09/13 03:44:31;;;;;;;2.97;2.73;;;17.60;99.90;;;;;;5005140;28;20768;-81
2023/09/13 03:46:58;;;;;;;2.83;2.57;;;17.60;99.90;;;;;;4988919;28;20480;-82
2023/09/13 03:49:25;;;;;;;6.60;6.20;;;17.60;99.90;;;;;;4996674;28;20863;-84
2023/09/13 03:51:52;;;;;;;2.83;2.70;;;17.60;99.90;;;;;;4997390;28;20444;-87
2023/09/13 03:54:20;;;;;;;2.50;2.40;;;17.60;99.90;;;;;;5000128;28;20452;-81
2023/09/13 03:56:47;;;;;;;4.10;3.87;;;17.60;99.90;;;;;;4997692;28;20455;-84
2023/09/13 03:59:14;;;;;;;5.10;4.80;;;17.50;99.90;;;;;;4995646;28;20814;-83
2023/09/13 04:01:42;;;;;;;3.00;2.83;;;17.40;99.90;;;;;;5104181;23;20553;-82
2023/09/13 04:04:09;;;;;;;2.40;2.20;;;17.40;99.90;;;;;;5000877;28;20756;-81
2023/09/13 04:06:38;;;;;;;2.13;2.03;;;17.40;99.90;;;;;;5149653;22;20510;-83
2023/09/13 04:09:06;;;;;;;2.90;2.80;;;17.40;99.90;;;;;;5425421;23;21027;-86
2023/09/13 04:11:33;;;;;;;4.83;4.60;;;17.50;99.90;;;;;;5070734;23;20719;-87
2023/09/13 04:14:01;;;;;;;3.37;3.17;;;17.40;99.90;;;;;;5354061;23;20533;-86
2023/09/13 04:16:28;;;;;;;2.70;2.50;;;17.40;99.90;;;;;;5086370;23;20500;-86
2023/09/13 04:18:55;;;;;;;2.00;1.90;;;17.40;99.90;;;;;;4998907;28;20508;-81
2023/09/13 04:21:23;;;;;;;2.73;2.53;;;17.30;99.90;;;;;;5007809;28;20447;-85
2023/09/13 04:23:50;;;;;;;3.03;2.87;;;17.50;99.90;;;;;;5012524;28;20499;-78
2023/09/13 04:26:21;;;;;;;2.87;2.67;;;17.40;99.90;;;;;;5173515;23;20475;-86
2023/09/13 04:31:22;;;;;;;4.20;3.97;;;17.40;99.90;;;;;;5015408;28;20521;-85
2023/09/13 04:33:54;;;;;;;2.40;2.20;;;17.30;99.90;;;;;;5137812;23;20534;-86
2023/09/13 04:36:21;;;;;;;3.43;3.23;;;17.30;99.90;;;;;;5186236;23;20508;-83
2023/09/13 04:38:49;;;;;;;4.50;4.30;;;17.30;99.90;;;;;;4976753;28;20517;-83
2023/09/13 04:41:16;;;;;;;5.93;5.43;;;17.30;99.90;;;;;;4966121;28;20458;-81
2023/09/13 04:43:43;;;;;;;6.70;6.30;;;17.40;99.90;;;;;;4980307;28;20696;-82
2023/09/13 04:46:11;;;;;;;1.97;1.87;;;17.40;99.90;;;;;;5123146;23;20487;-85
2023/09/13 04:48:38;;;;;;;5.10;4.80;;;17.50;99.90;;;;;;5013079;28;20450;-82
2023/09/13 04:56:16;;;;;;;2.90;2.70;;;17.60;99.90;;;;;;5126230;23;20491;-83
2023/09/13 04:58:44;;;;;;;2.43;2.33;;;17.70;99.90;;;;;;5670264;23;20472;-84
2023/09/13 05:01:11;;;;;;;2.53;2.43;;;18.00;99.90;;;;;;4994323;28;20437;-82
2023/09/13 05:03:38;;;;;;;4.17;3.90;;;17.90;99.90;;;;;;4995091;28;20492;-83
2023/09/13 05:06:05;;;;;;;4.57;4.27;;;18.00;99.90;;;;;;5002626;28;20459;-80
2023/09/13 05:08:36;;;;;;;4.00;3.80;;;18.10;99.90;;;;;;4993495;28;20547;-81
2023/09/13 05:11:02;;;;;;;4.77;4.50;;;18.20;99.90;;;;;;4983547;28;20473;-84
2023/09/13 05:13:31;;;;;;;4.97;4.67;;;18.20;99.90;;;;;;4985529;28;20452;-85
2023/09/13 05:15:58;;;;;;;2.93;2.80;;;18.30;99.90;;;;;;4984733;28;20441;-83
2023/09/13 05:18:25;;;;;;;4.67;4.27;;;18.40;99.90;;;;;;4991458;28;20484;-88
2023/09/13 05:20:52;;;;;;;4.03;3.83;;;18.50;99.90;;;;;;4991436;28;20586;-87
2023/09/13 05:23:19;;;;;;;5.23;4.93;;;18.50;99.90;;;;;;4984751;28;20457;-88
2023/09/13 05:25:48;;;;;;;1.20;1.20;;;18.70;99.90;;;;;;4978843;28;20512;-83
2023/09/13 05:28:16;;;;;;;4.83;4.33;;;18.80;99.90;;;;;;4988563;28;20464;-90
2023/09/13 05:30:47;;;;;;;2.37;2.27;;;18.90;99.90;;;;;;4979212;28;20479;-82
2023/09/13 05:33:14;;;;;;;2.40;2.30;;;19.10;99.90;;;;;;5531199;23;20545;-86
2023/09/13 05:35:41;;;;;;;3.03;2.83;;;19.20;99.90;;;;;;5061292;23;20509;-88
2023/09/13 05:38:08;;;;;;;2.13;2.03;;;19.40;99.90;;;;;;4995196;28;21037;-87
2023/09/13 05:45:40;;;;;;;1.30;1.20;;;19.70;99.90;;;;;;5274720;23;20499;-84
2023/09/13 05:50:43;;;;;;;1.30;1.30;;;19.80;99.90;;;;;;5166067;23;20518;-87
2023/09/13 05:53:10;;;;;;;3.47;3.27;;;19.90;99.90;;;;;;4998354;28;20531;-87
2023/09/13 05:55:37;;;;;;;6.00;2.77;;;20.00;99.90;;;;;;5004250;28;20463;-86
2023/09/13 05:58:04;;;;;;;2.13;2.03;;;20.10;99.90;;;;;;5002188;28;20504;-85
2023/09/13 06:00:33;;;;;;;2.40;2.30;;;20.10;99.90;;;;;;5004524;28;20449;-86
2023/09/13 06:03:02;;;;;;;5.40;5.00;;;20.30;99.90;;;;;;5008879;28;20451;-87
2023/09/13 06:05:31;;;;;;;3.30;3.13;;;20.50;99.90;;;;;;5012934;28;20494;-85
2023/09/13 06:07:59;;;;;;;5.17;4.20;;;20.60;99.90;;;;;;5213409;23;20555;-86
2023/09/13 06:10:26;;;;;;;2.97;2.80;;;20.60;99.90;;;;;;5114637;23;20492;-86
2023/09/13 06:12:53;;;;;;;2.80;2.60;;;20.70;99.90;;;;;;5004273;28;20548;-89
2023/09/13 06:15:23;;;;;;;2.57;2.47;;;20.80;99.90;;;;;;5008065;28;20434;-89
2023/09/13 06:17:51;;;;;;;2.50;2.40;;;20.90;99.90;;;;;;5011609;28;20423;-82
2023/09/13 06:20:19;;;;;;;2.10;2.00;;;21.10;99.90;;;;;;5130818;23;20552;-85
2023/09/13 06:22:45;;;;;;;2.53;2.43;;;21.30;99.90;;;;;;5125765;23;20547;-85
2023/09/13 06:25:16;;;;;;;3.67;3.47;;;21.50;99.90;;;;;;5167299;23;20567;-84
2023/09/13 06:27:45;;;;;;;1.93;1.83;;;21.80;99.90;;;;;;5227758;23;20462;-89
2023/09/13 06:30:18;;;;;;;3.50;3.30;;;22.00;99.90;;;;;;5509778;23;20404;-87
2023/09/13 06:32:44;;;;;;;1.93;1.83;;;22.40;99.90;;;;;;5203004;23;20501;-85
2023/09/13 06:40:54;;;;;;;2.20;2.10;;;23.70;99.90;;;;;;5718887;23;20492;-90
2023/09/13 06:43:26;;;;;;;1.53;1.47;;;23.70;99.90;;;;;;5891363;23;20699;-89
2023/09/13 07:02:08;;;;;;;2.03;1.93;;;26.80;99.90;;;;;;5336856;23;20511;-87
2023/09/13 07:05:05;;;;;;;2.70;2.60;;;27.50;99.90;;;;;;5848580;23;20513;-85
2023/09/13 07:12:59;;;;;;;1.30;1.30;;;28.30;99.90;;;;;;5149229;23;20910;-88
2023/09/13 07:15:27;;;;;;;2.23;2.13;;;28.50;99.10;;;;;;5431218;23;20547;-85
2023/09/13 07:17:54;;;;;;;2.47;2.30;;;28.70;97.70;;;;;;4981743;28;20439;-87
2023/09/13 07:44:29;;;;;;;2.07;1.97;;;31.90;89.60;;;;;;5523475;23;20545;-85
2023/09/13 08:03:04;;;;;;;2.30;2.20;;;33.00;78.00;;;;;;5190510;23;20576;-84
2023/09/13 08:05:32;;;;;;;3.20;3.00;;;33.00;78.70;;;;;;4992660;28;20751;-85
2023/09/13 08:08:00;;;;;;;3.17;2.97;;;32.90;75.90;;;;;;4991854;28;20443;-85
2023/09/13 08:13:20;;;;;;;1.97;1.87;;;32.70;76.00;;;;;;5088785;23;20448;-85
2023/09/13 08:15:51;;;;;;;2.37;2.27;;;32.80;76.50;;;;;;4992894;28;20416;-85
2023/09/13 08:18:18;;;;;;;2.13;2.03;;;33.10;76.30;;;;;;5335300;23;20475;-86
2023/09/13 08:20:45;;;;;;;2.83;2.73;;;32.80;75.00;;;;;;5180654;22;20621;-85
2023/09/13 08:23:13;;;;;;;3.93;3.10;;;33.10;74.60;;;;;;5336631;23;20495;-88
2023/09/13 08:25:43;;;;;;;1.50;1.40;;;33.10;74.90;;;;;;4999785;28;20498;-85
2023/09/13 08:30:45;;;;;;;1.93;1.83;;;33.40;72.50;;;;;;4980890;28;20491;-85
2023/09/13 08:33:13;;;;;;;1.77;1.67;;;33.40;72.50;;;;;;5213754;22;20562;-84
2023/09/13 08:35:40;;;;;;;2.07;1.97;;;33.80;71.50;;;;;;5129172;23;20564;-83
2023/09/13 08:38:07;;;;;;;2.60;2.50;;;33.40;72.60;;;;;;4951842;29;20461;-85
2023/09/13 08:40:45;;;;;;;38.67;3.20;;;33.60;72.50;;;;;;4961944;28;20652;-87
2023/09/13 08:43:14;;;;;;;1.77;1.67;;;33.60;72.90;;;;;;5150176;23;20530;-89
2023/09/13 08:45:46;;;;;;;2.37;2.27;;;33.90;72.00;;;;;;5175652;23;20494;-86
2023/09/13 08:48:14;;;;;;;2.20;2.10;;;33.90;71.40;;;;;;5199100;23;20582;-88
2023/09/13 08:50:42;;;;;;;2.60;2.50;;;33.90;71.00;;;;;;5238918;23;20574;-86
2023/09/13 08:53:12;;;;;;;1.40;1.40;;;33.70;70.00;;;;;;4976273;28;21029;-84
2023/09/13 08:55:41;;;;;;;1.40;1.33;;;33.70;70.70;;;;;;4982021;28;20461;-85
2023/09/13 08:58:08;;;;;;;2.00;1.90;;;33.80;70.10;;;;;;4980316;28;20857;-85
2023/09/13 09:00:38;;;;;;;2.13;2.03;;;34.20;69.50;;;;;;4981447;28;20523;-87
2023/09/13 09:05:45;;;;;;;1.60;1.50;;;33.40;71.40;;;;;;5283633;23;20544;-85
2023/09/13 09:10:55;;;;;;;2.33;2.23;;;32.70;71.00;;;;;;5378455;23;1089432;-86
2023/09/13 09:13:25;;;;;;;3.60;3.40;;;32.60;72.20;;;;;;5003167;28;20202;-87
2023/09/13 09:15:54;;;;;;;1.90;1.80;;;32.80;73.00;;;;;;5003746;28;20822;-86
2023/09/13 09:20:52;;;;;;;2.00;1.90;;;32.90;72.40;;;;;;5000489;28;20491;-83
2023/09/13 09:23:23;;;;;;;2.30;2.10;;;32.80;73.30;;;;;;4998658;28;20453;-87
2023/09/13 09:25:50;;;;;;;2.07;1.97;;;32.20;74.00;;;;;;4993504;28;20537;-87
2023/09/13 09:28:18;;;;;;;2.47;2.37;;;31.80;75.80;;;;;;4993634;28;20447;-87
2023/09/13 09:30:50;;;;;;;1.90;1.80;;;31.00;77.70;;;;;;5627411;23;20420;-82
2023/09/13 09:33:29;;;;;;;2.27;2.17;;;30.50;80.70;;;;;;5184843;23;20494;-85
2023/09/13 09:36:00;;;;;;;2.40;2.30;;;30.60;80.60;;;;;;5001299;28;20427;-84
2023/09/13 09:38:29;;;;;;;2.00;1.90;;;30.50;83.10;;;;;;5244633;23;20566;-84
2023/09/13 09:40:59;;;;;;;2.43;2.33;;;30.60;81.70;;;;;;5324795;23;20578;-88
2023/09/13 09:43:27;;;;;;;3.30;3.10;;;30.70;82.50;;;;;;5241325;23;20481;-90
2023/09/13 09:45:54;;;;;;;2.87;2.57;;;31.00;82.70;;;;;;5339786;23;20596;-85
2023/09/13 09:48:21;;;;;;;8.00;3.70;;;31.10;80.70;;;;;;5010238;28;20437;-87
2023/09/13 09:50:51;;;;;;;1.70;1.60;;;30.90;82.00;;;;;;5010179;28;20554;-88
2023/09/13 09:53:20;;;;;;;1.60;1.50;;;30.70;82.10;;;;;;5017416;28;20465;-85
2023/09/13 09:55:48;;;;;;;1.83;1.73;;;31.00;82.30;;;;;;5226063;23;20539;-84
2023/09/13 09:58:17;;;;;;;1.70;1.60;;;31.10;82.40;;;;;;5160449;23;20543;-87
2023/09/13 10:03:19;;;;;;;3.67;3.47;;;30.90;83.00;;;;;;4989270;28;20496;-85
2023/09/13 10:05:54;;;;;;;2.63;2.50;;;30.80;84.60;;;;;;4987123;28;20486;-86
2023/09/13 10:08:47;;;;;;;3.27;2.97;;;30.80;83.20;;;;;;5177437;23;20610;-86
2023/09/13 10:11:19;;;;;;;1.63;1.53;;;30.80;83.10;;;;;;5003427;28;20827;-88
2023/09/13 10:16:19;;;;;;;2.63;2.50;;;30.80;85.40;;;;;;4964328;28;20488;-89
2023/09/13 10:18:50;;;;;;;1.93;1.83;;;30.60;84.50;;;;;;4978931;28;20456;-86
2023/09/13 10:21:24;;;;;;;4.90;4.60;;;30.70;84.20;;;;;;4964820;28;20457;-87
2023/09/13 10:24:01;;;;;;;1.43;1.37;;;30.60;83.80;;;;;;5348694;23;20575;-87
2023/09/13 10:26:31;;;;;;;2.10;2.00;;;30.80;83.80;;;;;;4999621;28;20510;-86
2023/09/13 10:29:12;;;;;;;1.87;1.77;;;30.70;83.00;;;;;;5001654;28;20637;-88
2023/09/13 10:31:44;;;;;;;3.77;3.47;;;30.60;83.50;;;;;;5006956;28;20463;-87
2023/09/13 10:34:18;;;;;;;2.23;2.10;;;30.60;84.60;;;;;;5005916;28;20472;-88
2023/09/13 10:36:50;;;;;;;2.07;1.97;;;30.60;85.00;;;;;;5001242;28;20494;-86
2023/09/13 10:39:18;;;;;;;1.70;1.60;;;30.50;83.90;;;;;;4998784;28;20634;-87
2023/09/13 10:41:57;;;;;;;2.10;2.00;;;30.50;83.70;;;;;;5005918;28;20504;-87
2023/09/13 10:44:25;;;;;;;3.00;2.90;;;30.40;84.20;;;;;;4995398;28;20423;-86
2023/09/13 10:46:52;;;;;;;2.73;2.63;;;30.60;83.40;;;;;;5314372;23;20474;-87
2023/09/13 10:49:20;;;;;;;1.40;1.30;;;30.40;84.50;;;;;;5006641;28;20427;-86
2023/09/13 10:51:48;;;;;;;2.37;2.27;;;30.80;84.00;;;;;;5002912;28;20491;-85
2023/09/13 10:54:18;;;;;;;1.50;1.40;;;30.90;82.20;;;;;;5004847;28;20430;-88
2023/09/13 10:56:47;;;;;;;2.60;2.50;;;30.90;81.90;;;;;;5000895;28;20734;-84
2023/09/13 10:59:18;;;;;;;3.20;3.00;;;30.70;82.80;;;;;;5002859;28;20503;-87
2023/09/13 11:01:48;;;;;;;2.07;1.97;;;30.60;82.90;;;;;;5005382;28;20569;-86
2023/09/13 11:04:21;;;;;;;2.03;1.93;;;30.70;83.40;;;;;;5236815;23;20933;-85
2023/09/13 11:06:48;;;;;;;2.10;2.00;;;30.80;81.90;;;;;;4996449;28;20701;-86
2023/09/13 11:09:26;;;;;;;4.43;4.00;;;30.80;82.30;;;;;;5005020;28;20627;-88
2023/09/13 11:11:56;;;;;;;1.50;1.40;;;30.70;83.60;;;;;;5005168;28;20511;-89
2023/09/13 11:14:30;;;;;;;2.07;1.97;;;30.60;82.50;;;;;;5003794;28;20503;-84
2023/09/13 11:17:11;;;;;;;2.97;2.77;;;30.50;83.40;;;;;;5005224;28;20451;-88
2023/09/13 11:23:05;;;;;;;4.33;2.40;;;30.20;83.50;;;;;;4988655;28;20482;-85
2023/09/13 11:25:53;;;;;;;2.13;2.03;;;30.10;84.40;;;;;;4975824;28;20445;-87
2023/09/13 11:28:38;;;;;;;1.63;1.53;;;30.00;84.30;;;;;;4981247;28;20460;-81
2023/09/13 11:31:07;;;;;;;2.30;2.20;;;29.90;85.50;;;;;;4979169;28;20441;-89
2023/09/13 11:33:39;;;;;;;2.80;2.60;;;30.20;84.40;;;;;;5115460;22;20810;-87
2023/09/13 11:36:08;;;;;;;1.80;1.70;;;30.10;84.80;;;;;;5022530;28;20463;-84
2023/09/13 11:38:36;;;;;;;2.80;2.70;;;30.10;85.60;;;;;;5028919;28;20489;-87
2023/09/13 11:41:03;;;;;;;1.37;1.33;;;30.30;84.80;;;;;;5023363;28;21495;-86
2023/09/13 11:43:36;;;;;;;2.50;2.40;;;30.60;83.60;;;;;;5021956;28;20450;-85
2023/09/13 11:46:03;;;;;;;2.50;2.37;;;30.80;82.30;;;;;;5022368;28;20821;-86
2023/09/13 11:48:41;;;;;;;3.10;2.90;;;31.10;82.90;;;;;;5023301;28;20438;-82
2023/09/13 11:51:30;;;;;;;4.33;2.30;;;31.50;80.60;;;;;;5016808;28;20779;-82
2023/09/13 11:54:15;;;;;;;2.80;2.70;;;31.90;79.10;;;;;;5023000;28;20616;-86
2023/09/13 11:56:49;;;;;;;1.87;1.77;;;31.90;78.80;;;;;;5018126;28;20439;-85
2023/09/13 11:59:36;;;;;;;3.60;3.30;;;31.60;79.70;;;;;;5019784;28;20450;-87
2023/09/13 12:02:09;;;;;;;3.30;3.07;;;30.90;81.10;;;;;;5030411;28;20426;-85
2023/09/13 12:04:43;;;;;;;5.80;3.27;;;30.00;84.40;;;;;;5023034;28;20406;-88
2023/09/13 12:07:13;;;;;;;1.63;1.53;;;29.60;87.90;;;;;;5021411;28;20418;-88
2023/09/13 12:09:55;;;;;;;2.77;2.57;;;28.90;90.60;;;;;;5034341;28;20587;-88
2023/09/13 12:12:29;;;;;;;3.90;3.80;;;28.40;92.50;;;;;;5015731;28;20445;-88
2023/09/13 12:15:16;;;;;;;4.10;3.90;;;27.50;99.90;;;;;;5026250;28;20444;-87
2023/09/13 12:17:50;;;;;;;2.63;2.53;;;24.00;99.90;;;;;;5025061;28;20410;-86
2023/09/13 12:20:20;;;;;;;6.03;5.53;;;22.80;99.90;;;;;;5038231;28;20450;-87
2023/09/13 12:23:00;;;;;;;4.17;3.97;;;22.90;99.90;;;;;;5030690;28;20448;-91
2023/09/13 12:25:42;;;;;;;4.43;4.10;;;23.00;99.90;;;;;;5020551;28;20425;-82
2023/09/13 12:28:09;;;;;;;3.27;3.07;;;23.40;99.90;;;;;;5021667;28;20456;-81
2023/09/13 12:30:36;;;;;;;3.70;3.40;;;23.40;99.90;;;;;;5026240;28;20478;-82
2023/09/13 12:33:04;;;;;;;2.13;2.03;;;23.50;99.90;;;;;;5035944;28;20569;-84
2023/09/13 12:35:34;;;;;;;2.13;2.03;;;23.70;99.90;;;;;;5037162;28;20498;-80
2023/09/13 12:38:03;;;;;;;2.83;2.63;;;23.90;99.90;;;;;;5021428;28;20515;-80
2023/09/13 12:40:33;;;;;;;10.73;3.10;;;24.00;99.90;;;;;;5019695;28;20442;-84
2023/09/13 12:43:03;;;;;;;4.27;3.97;;;24.00;99.90;;;;;;5028164;28;20413;-82
2023/09/13 12:45:31;;;;;;;2.50;1.97;;;24.10;99.90;;;;;;5021087;28;20447;-87
2023/09/13 12:48:00;;;;;;;6.30;3.87;;;24.10;99.90;;;;;;5021392;28;20678;-85
2023/09/13 12:50:28;;;;;;;31.43;3.00;;;24.10;99.90;;;;;;5020465;28;20432;-84
2023/09/13 12:53:03;;;;;;;4.50;4.20;;;24.10;99.90;;;;;;5021345;28;20543;-84
2023/09/13 12:55:35;;;;;;;3.80;3.60;;;24.10;99.90;;;;;;5019490;28;20439;-84
2023/09/13 12:58:05;;;;;;;3.03;2.90;;;24.10;99.90;;;;;;5019475;28;20413;-86
2023/09/13 13:00:46;;;;;;;1.33;1.27;;;24.10;99.90;;;;;;5016855;28;20489;-86
2023/09/13 13:03:15;;;;;;;2.40;2.30;;;24.10;99.90;;;;;;5018680;28;20425;-85
2023/09/13 13:05:44;;;;;;;3.00;2.80;;;24.40;99.90;;;;;;5020020;28;20453;-87
2023/09/13 13:08:13;;;;;;;2.03;1.93;;;24.20;99.90;;;;;;5020511;28;20498;-86
2023/09/13 13:11:03;;;;;;;4.67;4.27;;;24.30;99.90;;;;;;5018243;28;20729;-86
2023/09/13 13:13:46;;;;;;;4.90;4.57;;;24.20;99.90;;;;;;5026888;28;20496;-86
2023/09/13 13:16:18;;;;;;;2.50;2.40;;;24.40;99.90;;;;;;5020373;28;20510;-86
2023/09/13 13:19:06;;;;;;;4.17;2.73;;;24.50;99.90;;;;;;5014691;28;20428;-88
2023/09/13 13:21:52;;;;;;;3.10;2.87;;;24.60;99.90;;;;;;5023106;28;20421;-87
2023/09/13 13:24:37;;;;;;;4.87;2.53;;;24.60;99.90;;;;;;5031475;28;20455;-88
2023/09/13 13:27:04;;;;;;;6.37;5.83;;;24.80;99.90;;;;;;5029969;28;20409;-86
2023/09/13 13:29:35;;;;;;;2.90;2.70;;;24.60;99.90;;;;;;5031406;28;20417;-87
2023/09/13 13:32:03;;;;;;;1.80;1.70;;;24.80;99.90;;;;;;5022994;28;20522;-86
2023/09/13 13:34:31;;;;;;;4.83;4.53;;;24.80;99.90;;;;;;5017595;28;20526;-86
2023/09/13 13:36:58;;;;;;;2.10;2.00;;;24.90;99.90;;;;;;5026565;28;20679;-87
2023/09/13 13:39:29;;;;;;;2.73;2.63;;;25.00;99.90;;;;;;5027820;28;20467;-87
2023/09/13 13:41:56;;;;;;;3.47;3.27;;;25.10;99.90;;;;;;5023962;28;20439;-89
2023/09/13 13:44:23;;;;;;;2.53;2.43;;;25.30;99.90;;;;;;5019938;28;20414;-88
2023/09/13 13:46:51;;;;;;;6.37;3.73;;;25.40;99.90;;;;;;5021577;28;20493;-89
2023/09/13 13:49:20;;;;;;;1.87;1.77;;;25.70;99.90;;;;;;5024567;28;20418;-86
2023/09/13 13:51:50;;;;;;;2.70;2.60;;;25.90;99.90;;;;;;5028361;28;20875;-89
2023/09/13 13:54:18;;;;;;;3.90;3.60;;;26.40;99.90;;;;;;5022281;28;20435;-87
2023/09/13 13:56:49;;;;;;;1.90;1.80;;;26.70;99.90;;;;;;5026598;28;20427;-89
2023/09/13 13:59:19;;;;;;;2.10;2.00;;;27.10;99.90;;;;;;5013197;28;20523;-87
2023/09/13 14:01:48;;;;;;;3.00;2.90;;;27.30;99.90;;;;;;5018580;28;20421;-86
2023/09/13 14:04:15;;;;;;;4.03;3.83;;;27.50;99.90;;;;;;5018168;28;20439;-86
2023/09/13 14:06:48;;;;;;;2.63;2.47;;;27.50;99.90;;;;;;5030351;28;20444;-89
2023/09/13 14:09:25;;;;;;;1.83;1.73;;;27.40;99.90;;;;;;5024825;28;20745;-85
2023/09/13 14:11:53;;;;;;;2.07;1.97;;;27.20;99.90;;;;;;5020272;28;22282;-87
2023/09/13 14:14:28;;;;;;;1.40;1.40;;;27.40;99.90;;;;;;5018970;28;20543;-88
2023/09/13 14:16:57;;;;;;;2.50;2.40;;;27.50;99.90;;;;;;5005316;28;20453;-81
2023/09/13 14:19:26;;;;;;;2.10;2.00;;;27.50;99.90;;;;;;5027822;28;20446;-88
2023/09/13 14:22:01;;;;;;;3.10;2.93;;;27.50;99.90;;;;;;5022726;28;20409;-87
2023/09/13 14:24:27;;;;;;;2.10;2.00;;;27.50;99.90;;;;;;5028416;28;20611;-82
2023/09/13 14:26:56;;;;;;;2.47;2.37;;;27.50;99.90;;;;;;5023417;28;20715;-85
2023/09/13 14:29:23;;;;;;;3.80;3.50;;;27.30;99.90;;;;;;5032707;28;20454;-83
2023/09/13 14:31:56;;;;;;;2.53;2.33;;;27.00;99.90;;;;;;5024577;28;20466;-84
2023/09/13 14:34:25;;;;;;;3.83;3.63;;;27.00;99.90;;;;;;5032380;28;20505;-83
2023/09/13 14:36:54;;;;;;;3.03;2.60;;;26.90;99.90;;;;;;5031827;28;20428;-84
2023/09/13 14:39:22;;;;;;;2.40;2.30;;;26.80;99.90;;;;;;5038923;28;20484;-86
2023/09/13 14:41:52;;;;;;;2.27;2.07;;;26.70;99.90;;;;;;5024325;28;20451;-83
2023/09/13 14:44:22;;;;;;;5.73;5.27;;;26.50;99.90;;;;;;5029046;28;20458;-85